sensor_id;sensor_type;location;lat;lon;timestamp;P1;durP1;ratioP1;P2;durP2;ratioP2
37205;SDS011;23099;42.636;23.198;2023-11-22T00:02:12;9.35;;;3.17;;
37205;SDS011;23099;42.636;23.198;2023-11-22T00:04:38;8.23;;;2.70;;
37205;SDS011;23099;42.636;23.198;2023-11-22T00:07:05;15.63;;;4.60;;
37205;SDS011;23099;42.636;23.198;2023-11-22T00:09:33;10.18;;;3.08;;
37205;SDS011;23099;42.636;23.198;2023-11-22T00:12:00;9.40;;;2.40;;
37205;SDS011;23099;42.636;23.198;2023-11-22T00:14:27;2.70;;;0.77;;
37205;SDS011;23099;42.636;23.198;2023-11-22T00:16:54;3.45;;;0.95;;
37205;SDS011;23099;42.636;23.198;2023-11-22T00:19:21;0.60;;;0.30;;
37205;SDS011;23099;42.636;23.198;2023-11-22T00:21:48;0.77;;;0.30;;
37205;SDS011;23099;42.636;23.198;2023-11-22T00:24:15;1.13;;;0.20;;
37205;SDS011;23099;42.636;23.198;2023-11-22T00:26:45;1.95;;;0.93;;
37205;SDS011;23099;42.636;23.198;2023-11-22T00:29:11;0.95;;;0.40;;
37205;SDS011;23099;42.636;23.198;2023-11-22T00:31:38;17.88;;;3.83;;
37205;SDS011;23099;42.636;23.198;2023-11-22T00:34:05;3.72;;;0.57;;
37205;SDS011;23099;42.636;23.198;2023-11-22T00:36:32;1.95;;;0.43;;
37205;SDS011;23099;42.636;23.198;2023-11-22T00:38:59;2.20;;;0.40;;
37205;SDS011;23099;42.636;23.198;2023-11-22T00:41:29;3.78;;;0.60;;
37205;SDS011;23099;42.636;23.198;2023-11-22T00:43:58;0.70;;;0.30;;
37205;SDS011;23099;42.636;23.198;2023-11-22T00:46:24;3.75;;;0.68;;
37205;SDS011;23099;42.636;23.198;2023-11-22T00:48:51;1.50;;;0.22;;
37205;SDS011;23099;42.636;23.198;2023-11-22T00:51:18;0.77;;;0.40;;
37205;SDS011;23099;42.636;23.198;2023-11-22T00:53:44;2.28;;;0.50;;
37205;SDS011;23099;42.636;23.198;2023-11-22T00:56:11;3.80;;;1.05;;
37205;SDS011;23099;42.636;23.198;2023-11-22T00:58:38;10.13;;;1.50;;
37205;SDS011;23099;42.636;23.198;2023-11-22T01:01:06;1.48;;;0.52;;
37205;SDS011;23099;42.636;23.198;2023-11-22T01:03:32;1.70;;;0.70;;
37205;SDS011;23099;42.636;23.198;2023-11-22T01:06:00;2.88;;;1.45;;
37205;SDS011;23099;42.636;23.198;2023-11-22T01:08:26;0.80;;;0.32;;
37205;SDS011;23099;42.636;23.198;2023-11-22T01:10:54;3.35;;;0.77;;
37205;SDS011;23099;42.636;23.198;2023-11-22T01:13:22;3.03;;;0.93;;
37205;SDS011;23099;42.636;23.198;2023-11-22T01:15:48;29.13;;;9.65;;
37205;SDS011;23099;42.636;23.198;2023-11-22T01:18:17;8.60;;;2.28;;
37205;SDS011;23099;42.636;23.198;2023-11-22T01:20:44;1.35;;;0.43;;
37205;SDS011;23099;42.636;23.198;2023-11-22T01:23:11;4.22;;;0.80;;
37205;SDS011;23099;42.636;23.198;2023-11-22T01:25:38;15.48;;;6.45;;
37205;SDS011;23099;42.636;23.198;2023-11-22T01:28:04;8.15;;;2.33;;
37205;SDS011;23099;42.636;23.198;2023-11-22T01:30:31;4.30;;;0.95;;
37205;SDS011;23099;42.636;23.198;2023-11-22T01:32:58;4.60;;;2.47;;
37205;SDS011;23099;42.636;23.198;2023-11-22T01:35:26;2.17;;;0.65;;
37205;SDS011;23099;42.636;23.198;2023-11-22T01:37:53;2.30;;;0.82;;
37205;SDS011;23099;42.636;23.198;2023-11-22T01:40:21;0.95;;;0.60;;
37205;SDS011;23099;42.636;23.198;2023-11-22T01:42:48;0.43;;;0.22;;
37205;SDS011;23099;42.636;23.198;2023-11-22T01:45:15;1.33;;;0.30;;
37205;SDS011;23099;42.636;23.198;2023-11-22T01:50:10;1.67;;;0.30;;
37205;SDS011;23099;42.636;23.198;2023-11-22T01:52:41;1.13;;;0.63;;
37205;SDS011;23099;42.636;23.198;2023-11-22T01:55:08;0.95;;;0.40;;
37205;SDS011;23099;42.636;23.198;2023-11-22T01:57:35;3.87;;;0.53;;
37205;SDS011;23099;42.636;23.198;2023-11-22T02:00:02;13.68;;;6.15;;
37205;SDS011;23099;42.636;23.198;2023-11-22T02:02:32;4.03;;;1.38;;
37205;SDS011;23099;42.636;23.198;2023-11-22T02:04:59;12.05;;;5.03;;
37205;SDS011;23099;42.636;23.198;2023-11-22T02:07:26;3.53;;;1.90;;
37205;SDS011;23099;42.636;23.198;2023-11-22T02:09:55;9.57;;;4.43;;
37205;SDS011;23099;42.636;23.198;2023-11-22T02:12:22;1.85;;;0.63;;
37205;SDS011;23099;42.636;23.198;2023-11-22T02:14:49;2.15;;;0.63;;
37205;SDS011;23099;42.636;23.198;2023-11-22T02:17:16;1.20;;;0.40;;
37205;SDS011;23099;42.636;23.198;2023-11-22T02:19:43;28.75;;;11.27;;
37205;SDS011;23099;42.636;23.198;2023-11-22T02:22:09;9.88;;;3.38;;
37205;SDS011;23099;42.636;23.198;2023-11-22T02:24:37;4.88;;;1.05;;
37205;SDS011;23099;42.636;23.198;2023-11-22T02:27:06;1.52;;;0.60;;
37205;SDS011;23099;42.636;23.198;2023-11-22T02:29:32;1.58;;;0.40;;
37205;SDS011;23099;42.636;23.198;2023-11-22T02:31:59;4.25;;;0.63;;
37205;SDS011;23099;42.636;23.198;2023-11-22T02:34:26;1.20;;;0.38;;
37205;SDS011;23099;42.636;23.198;2023-11-22T02:36:53;4.50;;;1.17;;
37205;SDS011;23099;42.636;23.198;2023-11-22T02:39:19;1.55;;;0.50;;
37205;SDS011;23099;42.636;23.198;2023-11-22T02:41:48;9.83;;;3.87;;
37205;SDS011;23099;42.636;23.198;2023-11-22T02:44:15;4.90;;;1.05;;
37205;SDS011;23099;42.636;23.198;2023-11-22T02:46:42;7.50;;;3.33;;
37205;SDS011;23099;42.636;23.198;2023-11-22T02:49:09;1.77;;;0.43;;
37205;SDS011;23099;42.636;23.198;2023-11-22T02:51:35;3.97;;;1.20;;
37205;SDS011;23099;42.636;23.198;2023-11-22T02:54:02;0.82;;;0.25;;
37205;SDS011;23099;42.636;23.198;2023-11-22T02:56:30;1.60;;;0.30;;
37205;SDS011;23099;42.636;23.198;2023-11-22T02:58:58;0.35;;;0.20;;
37205;SDS011;23099;42.636;23.198;2023-11-22T03:01:25;2.67;;;1.05;;
37205;SDS011;23099;42.636;23.198;2023-11-22T03:03:52;1.15;;;0.32;;
37205;SDS011;23099;42.636;23.198;2023-11-22T03:06:19;1.35;;;0.50;;
37205;SDS011;23099;42.636;23.198;2023-11-22T03:08:45;12.50;;;1.85;;
37205;SDS011;23099;42.636;23.198;2023-11-22T03:11:13;2.60;;;1.05;;
37205;SDS011;23099;42.636;23.198;2023-11-22T03:13:39;2.22;;;0.93;;
37205;SDS011;23099;42.636;23.198;2023-11-22T03:16:07;1.63;;;0.50;;
37205;SDS011;23099;42.636;23.198;2023-11-22T03:18:35;0.77;;;0.50;;
37205;SDS011;23099;42.636;23.198;2023-11-22T03:21:03;2.22;;;0.60;;
37205;SDS011;23099;42.636;23.198;2023-11-22T03:23:30;0.88;;;0.50;;
37205;SDS011;23099;42.636;23.198;2023-11-22T03:25:57;1.05;;;0.40;;
37205;SDS011;23099;42.636;23.198;2023-11-22T03:28:23;12.82;;;1.42;;
37205;SDS011;23099;42.636;23.198;2023-11-22T03:30:50;2.75;;;0.98;;
37205;SDS011;23099;42.636;23.198;2023-11-22T03:33:17;2.80;;;0.82;;
37205;SDS011;23099;42.636;23.198;2023-11-22T03:35:44;1.60;;;0.40;;
37205;SDS011;23099;42.636;23.198;2023-11-22T03:38:11;3.33;;;0.77;;
37205;SDS011;23099;42.636;23.198;2023-11-22T03:40:37;3.13;;;0.20;;
37205;SDS011;23099;42.636;23.198;2023-11-22T03:43:05;1.40;;;0.63;;
37205;SDS011;23099;42.636;23.198;2023-11-22T03:45:35;0.80;;;0.20;;
37205;SDS011;23099;42.636;23.198;2023-11-22T03:48:01;0.77;;;0.25;;
37205;SDS011;23099;42.636;23.198;2023-11-22T03:50:29;0.50;;;0.17;;
37205;SDS011;23099;42.636;23.198;2023-11-22T03:52:56;1.85;;;0.55;;
37205;SDS011;23099;42.636;23.198;2023-11-22T03:55:23;0.63;;;0.25;;
37205;SDS011;23099;42.636;23.198;2023-11-22T03:57:49;3.22;;;1.27;;
37205;SDS011;23099;42.636;23.198;2023-11-22T04:00:16;1.42;;;0.73;;
37205;SDS011;23099;42.636;23.198;2023-11-22T04:02:45;3.05;;;1.13;;
37205;SDS011;23099;42.636;23.198;2023-11-22T04:05:11;2.58;;;1.48;;
37205;SDS011;23099;42.636;23.198;2023-11-22T04:07:39;4.55;;;0.68;;
37205;SDS011;23099;42.636;23.198;2023-11-22T04:10:07;5.57;;;1.48;;
37205;SDS011;23099;42.636;23.198;2023-11-22T04:12:34;2.78;;;0.85;;
37205;SDS011;23099;42.636;23.198;2023-11-22T04:15:00;4.53;;;0.47;;
37205;SDS011;23099;42.636;23.198;2023-11-22T04:17:27;2.25;;;0.60;;
37205;SDS011;23099;42.636;23.198;2023-11-22T04:19:54;2.50;;;0.90;;
37205;SDS011;23099;42.636;23.198;2023-11-22T04:22:20;4.70;;;1.33;;
37205;SDS011;23099;42.636;23.198;2023-11-22T04:24:48;2.15;;;0.77;;
37205;SDS011;23099;42.636;23.198;2023-11-22T04:27:15;1.77;;;0.70;;
37205;SDS011;23099;42.636;23.198;2023-11-22T04:29:42;0.98;;;0.47;;
37205;SDS011;23099;42.636;23.198;2023-11-22T04:32:08;2.08;;;0.93;;
37205;SDS011;23099;42.636;23.198;2023-11-22T04:34:35;1.50;;;0.60;;
37205;SDS011;23099;42.636;23.198;2023-11-22T04:37:02;8.02;;;2.70;;
37205;SDS011;23099;42.636;23.198;2023-11-22T04:39:30;2.83;;;0.93;;
37205;SDS011;23099;42.636;23.198;2023-11-22T04:41:58;3.30;;;0.63;;
37205;SDS011;23099;42.636;23.198;2023-11-22T04:44:25;1.73;;;0.77;;
37205;SDS011;23099;42.636;23.198;2023-11-22T04:46:52;5.75;;;1.42;;
37205;SDS011;23099;42.636;23.198;2023-11-22T04:49:19;1.13;;;0.40;;
37205;SDS011;23099;42.636;23.198;2023-11-22T04:51:45;3.92;;;1.33;;
37205;SDS011;23099;42.636;23.198;2023-11-22T04:54:12;2.70;;;0.90;;
37205;SDS011;23099;42.636;23.198;2023-11-22T04:56:39;3.85;;;1.45;;
37205;SDS011;23099;42.636;23.198;2023-11-22T04:59:07;3.05;;;0.75;;
37205;SDS011;23099;42.636;23.198;2023-11-22T05:01:34;0.50;;;0.20;;
37205;SDS011;23099;42.636;23.198;2023-11-22T05:04:01;1.60;;;0.63;;
37205;SDS011;23099;42.636;23.198;2023-11-22T05:06:28;1.20;;;0.90;;
37205;SDS011;23099;42.636;23.198;2023-11-22T05:08:55;3.03;;;0.90;;
37205;SDS011;23099;42.636;23.198;2023-11-22T05:11:21;1.25;;;0.82;;
37205;SDS011;23099;42.636;23.198;2023-11-22T05:13:48;7.22;;;1.08;;
37205;SDS011;23099;42.636;23.198;2023-11-22T05:16:17;3.13;;;0.77;;
37205;SDS011;23099;42.636;23.198;2023-11-22T05:18:44;2.53;;;0.50;;
37205;SDS011;23099;42.636;23.198;2023-11-22T05:21:11;2.90;;;0.30;;
37205;SDS011;23099;42.636;23.198;2023-11-22T05:23:38;2.15;;;0.80;;
37205;SDS011;23099;42.636;23.198;2023-11-22T05:26:05;5.50;;;1.23;;
37205;SDS011;23099;42.636;23.198;2023-11-22T05:28:32;2.25;;;1.10;;
37205;SDS011;23099;42.636;23.198;2023-11-22T05:31:00;1.60;;;1.02;;
37205;SDS011;23099;42.636;23.198;2023-11-22T05:33:28;2.22;;;0.45;;
37205;SDS011;23099;42.636;23.198;2023-11-22T05:35:57;4.47;;;1.40;;
37205;SDS011;23099;42.636;23.198;2023-11-22T05:38:24;2.80;;;0.70;;
37205;SDS011;23099;42.636;23.198;2023-11-22T05:40:51;3.28;;;1.10;;
37205;SDS011;23099;42.636;23.198;2023-11-22T05:43:21;3.80;;;1.48;;
37205;SDS011;23099;42.636;23.198;2023-11-22T05:45:51;3.22;;;0.60;;
37205;SDS011;23099;42.636;23.198;2023-11-22T05:48:18;5.30;;;1.48;;
37205;SDS011;23099;42.636;23.198;2023-11-22T05:50:46;1.88;;;0.30;;
37205;SDS011;23099;42.636;23.198;2023-11-22T05:55:44;0.60;;;0.30;;
37205;SDS011;23099;42.636;23.198;2023-11-22T05:58:11;1.23;;;0.47;;
37205;SDS011;23099;42.636;23.198;2023-11-22T06:03:06;3.53;;;1.73;;
37205;SDS011;23099;42.636;23.198;2023-11-22T06:05:33;1.30;;;0.60;;
37205;SDS011;23099;42.636;23.198;2023-11-22T06:08:01;7.13;;;1.60;;
37205;SDS011;23099;42.636;23.198;2023-11-22T06:10:28;1.83;;;0.75;;
37205;SDS011;23099;42.636;23.198;2023-11-22T06:12:54;1.30;;;0.52;;
37205;SDS011;23099;42.636;23.198;2023-11-22T06:15:21;2.13;;;0.70;;
37205;SDS011;23099;42.636;23.198;2023-11-22T06:17:48;1.38;;;0.35;;
37205;SDS011;23099;42.636;23.198;2023-11-22T06:20:15;1.17;;;0.80;;
37205;SDS011;23099;42.636;23.198;2023-11-22T06:22:42;1.80;;;0.50;;
37205;SDS011;23099;42.636;23.198;2023-11-22T06:25:11;1.05;;;0.52;;
37205;SDS011;23099;42.636;23.198;2023-11-22T06:27:38;0.55;;;0.30;;
37205;SDS011;23099;42.636;23.198;2023-11-22T06:30:05;1.77;;;0.70;;
37205;SDS011;23099;42.636;23.198;2023-11-22T06:32:34;1.35;;;0.30;;
37205;SDS011;23099;42.636;23.198;2023-11-22T06:35:01;1.35;;;0.70;;
37205;SDS011;23099;42.636;23.198;2023-11-22T06:37:28;4.40;;;1.17;;
37205;SDS011;23099;42.636;23.198;2023-11-22T06:39:54;2.80;;;0.65;;
37205;SDS011;23099;42.636;23.198;2023-11-22T06:42:24;0.88;;;0.50;;
37205;SDS011;23099;42.636;23.198;2023-11-22T06:44:51;1.17;;;0.63;;
37205;SDS011;23099;42.636;23.198;2023-11-22T06:47:18;0.65;;;0.30;;
37205;SDS011;23099;42.636;23.198;2023-11-22T06:49:44;0.77;;;0.43;;
37205;SDS011;23099;42.636;23.198;2023-11-22T06:52:11;3.65;;;0.50;;
37205;SDS011;23099;42.636;23.198;2023-11-22T06:54:38;2.22;;;0.50;;
37205;SDS011;23099;42.636;23.198;2023-11-22T06:57:04;1.88;;;0.80;;
37205;SDS011;23099;42.636;23.198;2023-11-22T06:59:32;3.05;;;1.05;;
37205;SDS011;23099;42.636;23.198;2023-11-22T07:01:59;7.88;;;3.35;;
37205;SDS011;23099;42.636;23.198;2023-11-22T07:04:26;7.40;;;2.95;;
37205;SDS011;23099;42.636;23.198;2023-11-22T07:06:53;6.28;;;3.08;;
37205;SDS011;23099;42.636;23.198;2023-11-22T07:09:19;2.95;;;1.73;;
37205;SDS011;23099;42.636;23.198;2023-11-22T07:11:46;2.30;;;0.65;;
37205;SDS011;23099;42.636;23.198;2023-11-22T07:14:13;4.20;;;1.77;;
37205;SDS011;23099;42.636;23.198;2023-11-22T07:16:41;3.90;;;1.42;;
37205;SDS011;23099;42.636;23.198;2023-11-22T07:19:08;1.48;;;0.85;;
37205;SDS011;23099;42.636;23.198;2023-11-22T07:21:34;2.70;;;0.70;;
37205;SDS011;23099;42.636;23.198;2023-11-22T07:26:31;2.38;;;0.70;;
37205;SDS011;23099;42.636;23.198;2023-11-22T07:28:58;1.65;;;0.50;;
37205;SDS011;23099;42.636;23.198;2023-11-22T07:31:25;1.55;;;0.60;;
37205;SDS011;23099;42.636;23.198;2023-11-22T07:33:53;5.05;;;1.52;;
37205;SDS011;23099;42.636;23.198;2023-11-22T07:36:20;2.88;;;1.55;;
37205;SDS011;23099;42.636;23.198;2023-11-22T07:38:47;4.50;;;1.95;;
37205;SDS011;23099;42.636;23.198;2023-11-22T07:41:14;2.78;;;2.03;;
37205;SDS011;23099;42.636;23.198;2023-11-22T07:43:41;4.75;;;2.72;;
37205;SDS011;23099;42.636;23.198;2023-11-22T07:46:08;2.10;;;0.60;;
37205;SDS011;23099;42.636;23.198;2023-11-22T07:48:37;5.63;;;1.92;;
37205;SDS011;23099;42.636;23.198;2023-11-22T07:51:07;1.80;;;0.68;;
37205;SDS011;23099;42.636;23.198;2023-11-22T07:53:34;5.57;;;0.80;;
37205;SDS011;23099;42.636;23.198;2023-11-22T07:56:01;1.60;;;0.50;;
37205;SDS011;23099;42.636;23.198;2023-11-22T07:58:29;1.02;;;0.60;;
37205;SDS011;23099;42.636;23.198;2023-11-22T08:00:56;1.88;;;0.77;;
37205;SDS011;23099;42.636;23.198;2023-11-22T08:03:23;3.55;;;0.88;;
37205;SDS011;23099;42.636;23.198;2023-11-22T08:05:50;3.28;;;0.88;;
37205;SDS011;23099;42.636;23.198;2023-11-22T08:08:20;1.98;;;1.08;;
37205;SDS011;23099;42.636;23.198;2023-11-22T08:10:47;2.10;;;0.47;;
37205;SDS011;23099;42.636;23.198;2023-11-22T08:13:14;2.58;;;1.33;;
37205;SDS011;23099;42.636;23.198;2023-11-22T08:15:41;2.53;;;1.00;;
37205;SDS011;23099;42.636;23.198;2023-11-22T08:18:08;2.63;;;0.88;;
37205;SDS011;23099;42.636;23.198;2023-11-22T08:20:35;4.28;;;1.75;;
37205;SDS011;23099;42.636;23.198;2023-11-22T08:23:03;3.85;;;1.02;;
37205;SDS011;23099;42.636;23.198;2023-11-22T08:25:32;1.33;;;0.65;;
37205;SDS011;23099;42.636;23.198;2023-11-22T08:27:59;2.08;;;0.82;;
37205;SDS011;23099;42.636;23.198;2023-11-22T08:30:26;1.33;;;0.65;;
37205;SDS011;23099;42.636;23.198;2023-11-22T08:32:53;1.42;;;0.50;;
37205;SDS011;23099;42.636;23.198;2023-11-22T08:35:21;2.15;;;1.00;;
37205;SDS011;23099;42.636;23.198;2023-11-22T08:37:48;1.75;;;0.77;;
37205;SDS011;23099;42.636;23.198;2023-11-22T08:40:16;0.82;;;0.22;;
37205;SDS011;23099;42.636;23.198;2023-11-22T08:42:46;0.60;;;0.38;;
37205;SDS011;23099;42.636;23.198;2023-11-22T08:45:13;1.33;;;0.55;;
37205;SDS011;23099;42.636;23.198;2023-11-22T08:47:40;1.77;;;0.52;;
37205;SDS011;23099;42.636;23.198;2023-11-22T08:50:07;0.95;;;0.35;;
37205;SDS011;23099;42.636;23.198;2023-11-22T08:55:04;2.63;;;1.10;;
37205;SDS011;23099;42.636;23.198;2023-11-22T08:57:32;2.40;;;1.13;;
37205;SDS011;23099;42.636;23.198;2023-11-22T09:00:01;2.70;;;1.30;;
37205;SDS011;23099;42.636;23.198;2023-11-22T09:02:32;4.40;;;0.60;;
37205;SDS011;23099;42.636;23.198;2023-11-22T09:04:59;1.40;;;0.60;;
37205;SDS011;23099;42.636;23.198;2023-11-22T09:07:25;3.80;;;1.00;;
37205;SDS011;23099;42.636;23.198;2023-11-22T09:09:53;3.35;;;1.00;;
37205;SDS011;23099;42.636;23.198;2023-11-22T09:12:20;19.45;;;11.73;;
37205;SDS011;23099;42.636;23.198;2023-11-22T09:14:47;3.08;;;1.58;;
37205;SDS011;23099;42.636;23.198;2023-11-22T09:17:15;1.90;;;1.30;;
37205;SDS011;23099;42.636;23.198;2023-11-22T09:19:41;1.60;;;0.50;;
37205;SDS011;23099;42.636;23.198;2023-11-22T09:22:08;7.18;;;3.67;;
37205;SDS011;23099;42.636;23.198;2023-11-22T09:24:36;39.22;;;31.88;;
37205;SDS011;23099;42.636;23.198;2023-11-22T09:27:03;16.17;;;10.77;;
37205;SDS011;23099;42.636;23.198;2023-11-22T09:29:31;4.82;;;2.22;;
37205;SDS011;23099;42.636;23.198;2023-11-22T09:31:59;3.22;;;0.88;;
37205;SDS011;23099;42.636;23.198;2023-11-22T09:34:28;2.45;;;0.73;;
37205;SDS011;23099;42.636;23.198;2023-11-22T09:36:55;2.13;;;1.02;;
37205;SDS011;23099;42.636;23.198;2023-11-22T09:39:22;4.63;;;1.65;;
37205;SDS011;23099;42.636;23.198;2023-11-22T09:41:50;2.47;;;1.50;;
37205;SDS011;23099;42.636;23.198;2023-11-22T09:44:18;2.28;;;0.70;;
37205;SDS011;23099;42.636;23.198;2023-11-22T09:46:45;3.25;;;1.00;;
37205;SDS011;23099;42.636;23.198;2023-11-22T09:49:18;0.90;;;0.60;;
37205;SDS011;23099;42.636;23.198;2023-11-22T09:51:49;4.30;;;0.55;;
37205;SDS011;23099;42.636;23.198;2023-11-22T09:54:19;2.45;;;1.50;;
37205;SDS011;23099;42.636;23.198;2023-11-22T09:56:49;2.03;;;1.15;;
37205;SDS011;23099;42.636;23.198;2023-11-22T09:59:18;2.30;;;0.80;;
37205;SDS011;23099;42.636;23.198;2023-11-22T10:01:48;4.68;;;1.27;;
37205;SDS011;23099;42.636;23.198;2023-11-22T10:04:15;2.65;;;0.90;;
37205;SDS011;23099;42.636;23.198;2023-11-22T10:06:42;1.90;;;1.02;;
37205;SDS011;23099;42.636;23.198;2023-11-22T10:09:12;2.50;;;0.98;;
37205;SDS011;23099;42.636;23.198;2023-11-22T10:11:39;4.10;;;1.13;;
37205;SDS011;23099;42.636;23.198;2023-11-22T10:14:08;1.70;;;0.82;;
37205;SDS011;23099;42.636;23.198;2023-11-22T10:16:35;2.10;;;0.70;;
37205;SDS011;23099;42.636;23.198;2023-11-22T10:19:02;3.45;;;1.15;;
37205;SDS011;23099;42.636;23.198;2023-11-22T10:21:31;3.45;;;0.98;;
37205;SDS011;23099;42.636;23.198;2023-11-22T10:24:00;2.85;;;1.13;;
37205;SDS011;23099;42.636;23.198;2023-11-22T10:26:29;1.75;;;0.95;;
37205;SDS011;23099;42.636;23.198;2023-11-22T10:31:23;1.88;;;0.85;;
37205;SDS011;23099;42.636;23.198;2023-11-22T10:33:50;6.75;;;2.40;;
37205;SDS011;23099;42.636;23.198;2023-11-22T10:36:21;7.32;;;1.85;;
37205;SDS011;23099;42.636;23.198;2023-11-22T10:38:48;3.38;;;0.85;;
37205;SDS011;23099;42.636;23.198;2023-11-22T10:41:15;2.70;;;1.42;;
37205;SDS011;23099;42.636;23.198;2023-11-22T10:43:44;4.50;;;1.67;;
37205;SDS011;23099;42.636;23.198;2023-11-22T10:46:11;2.70;;;1.02;;
37205;SDS011;23099;42.636;23.198;2023-11-22T10:48:39;1.55;;;0.85;;
37205;SDS011;23099;42.636;23.198;2023-11-22T10:51:06;2.58;;;1.15;;
37205;SDS011;23099;42.636;23.198;2023-11-22T10:53:42;4.53;;;1.45;;
37205;SDS011;23099;42.636;23.198;2023-11-22T10:56:14;3.33;;;1.20;;
37205;SDS011;23099;42.636;23.198;2023-11-22T10:58:47;1.67;;;0.68;;
37205;SDS011;23099;42.636;23.198;2023-11-22T11:01:15;4.70;;;1.13;;
37205;SDS011;23099;42.636;23.198;2023-11-22T11:03:45;5.18;;;1.23;;
37205;SDS011;23099;42.636;23.198;2023-11-22T11:06:16;6.97;;;1.88;;
37205;SDS011;23099;42.636;23.198;2023-11-22T11:08:48;2.78;;;0.90;;
37205;SDS011;23099;42.636;23.198;2023-11-22T11:11:15;3.30;;;0.90;;
37205;SDS011;23099;42.636;23.198;2023-11-22T11:13:43;3.10;;;1.05;;
37205;SDS011;23099;42.636;23.198;2023-11-22T11:16:13;3.40;;;1.80;;
37205;SDS011;23099;42.636;23.198;2023-11-22T11:18:41;3.80;;;2.03;;
37205;SDS011;23099;42.636;23.198;2023-11-22T11:21:08;6.63;;;2.40;;
37205;SDS011;23099;42.636;23.198;2023-11-22T11:23:38;2.45;;;0.85;;
37205;SDS011;23099;42.636;23.198;2023-11-22T11:26:14;4.65;;;1.80;;
37205;SDS011;23099;42.636;23.198;2023-11-22T11:28:43;5.95;;;2.13;;
37205;SDS011;23099;42.636;23.198;2023-11-22T11:31:12;9.38;;;4.18;;
37205;SDS011;23099;42.636;23.198;2023-11-22T11:36:20;4.50;;;2.10;;
37205;SDS011;23099;42.636;23.198;2023-11-22T11:41:15;1.60;;;1.02;;
37205;SDS011;23099;42.636;23.198;2023-11-22T11:43:42;5.88;;;1.25;;
37205;SDS011;23099;42.636;23.198;2023-11-22T11:46:10;10.38;;;4.15;;
37205;SDS011;23099;42.636;23.198;2023-11-22T11:48:39;11.60;;;5.20;;
37205;SDS011;23099;42.636;23.198;2023-11-22T11:51:08;5.05;;;1.83;;
37205;SDS011;23099;42.636;23.198;2023-11-22T11:53:37;4.05;;;1.67;;
37205;SDS011;23099;42.636;23.198;2023-11-22T11:56:04;5.55;;;2.17;;
37205;SDS011;23099;42.636;23.198;2023-11-22T11:58:32;7.97;;;3.15;;
37205;SDS011;23099;42.636;23.198;2023-11-22T12:00:58;5.60;;;1.67;;
37205;SDS011;23099;42.636;23.198;2023-11-22T12:03:25;5.05;;;2.10;;
37205;SDS011;23099;42.636;23.198;2023-11-22T12:05:54;3.65;;;1.23;;
37205;SDS011;23099;42.636;23.198;2023-11-22T12:08:21;10.07;;;2.83;;
37205;SDS011;23099;42.636;23.198;2023-11-22T12:10:48;4.53;;;2.05;;
37205;SDS011;23099;42.636;23.198;2023-11-22T12:13:16;2.88;;;1.38;;
37205;SDS011;23099;42.636;23.198;2023-11-22T12:15:43;6.82;;;2.58;;
37205;SDS011;23099;42.636;23.198;2023-11-22T12:18:10;3.45;;;1.52;;
37205;SDS011;23099;42.636;23.198;2023-11-22T12:20:38;4.70;;;2.10;;
37205;SDS011;23099;42.636;23.198;2023-11-22T12:23:06;2.63;;;1.35;;
37205;SDS011;23099;42.636;23.198;2023-11-22T12:25:33;3.70;;;1.52;;
37205;SDS011;23099;42.636;23.198;2023-11-22T12:28:01;3.05;;;1.10;;
37205;SDS011;23099;42.636;23.198;2023-11-22T12:30:30;3.08;;;1.55;;
37205;SDS011;23099;42.636;23.198;2023-11-22T12:33:00;5.47;;;1.45;;
37205;SDS011;23099;42.636;23.198;2023-11-22T12:35:29;10.68;;;2.17;;
37205;SDS011;23099;42.636;23.198;2023-11-22T12:40:26;3.20;;;0.93;;
37205;SDS011;23099;42.636;23.198;2023-11-22T12:42:56;3.67;;;1.38;;
37205;SDS011;23099;42.636;23.198;2023-11-22T12:45:24;4.53;;;2.53;;
37205;SDS011;23099;42.636;23.198;2023-11-22T12:47:53;5.65;;;2.58;;
37205;SDS011;23099;42.636;23.198;2023-11-22T12:50:29;3.90;;;1.95;;
37205;SDS011;23099;42.636;23.198;2023-11-22T12:52:57;4.75;;;2.08;;
37205;SDS011;23099;42.636;23.198;2023-11-22T12:55:25;5.20;;;3.05;;
37205;SDS011;23099;42.636;23.198;2023-11-22T12:57:56;5.97;;;2.65;;
37205;SDS011;23099;42.636;23.198;2023-11-22T13:00:24;16.13;;;4.72;;
37205;SDS011;23099;42.636;23.198;2023-11-22T13:02:54;5.75;;;2.00;;
37205;SDS011;23099;42.636;23.198;2023-11-22T13:05:21;8.40;;;2.95;;
37205;SDS011;23099;42.636;23.198;2023-11-22T13:07:47;38.38;;;18.25;;
37205;SDS011;23099;42.636;23.198;2023-11-22T13:10:14;280.38;;;118.13;;
37205;SDS011;23099;42.636;23.198;2023-11-22T13:12:43;353.92;;;148.38;;
37205;SDS011;23099;42.636;23.198;2023-11-22T13:15:10;65.50;;;37.17;;
37205;SDS011;23099;42.636;23.198;2023-11-22T13:17:37;13.50;;;6.80;;
37205;SDS011;23099;42.636;23.198;2023-11-22T13:20:06;6.03;;;2.22;;
37205;SDS011;23099;42.636;23.198;2023-11-22T13:22:38;9.25;;;3.65;;
37205;SDS011;23099;42.636;23.198;2023-11-22T13:25:05;6.40;;;3.38;;
37205;SDS011;23099;42.636;23.198;2023-11-22T13:27:33;5.00;;;1.48;;
37205;SDS011;23099;42.636;23.198;2023-11-22T13:30:01;4.70;;;1.60;;
37205;SDS011;23099;42.636;23.198;2023-11-22T13:32:29;4.47;;;2.33;;
37205;SDS011;23099;42.636;23.198;2023-11-22T13:34:56;5.78;;;1.77;;
37205;SDS011;23099;42.636;23.198;2023-11-22T13:37:23;3.95;;;1.33;;
37205;SDS011;23099;42.636;23.198;2023-11-22T13:39:49;3.55;;;0.85;;
37205;SDS011;23099;42.636;23.198;2023-11-22T13:42:17;3.60;;;1.75;;
37205;SDS011;23099;42.636;23.198;2023-11-22T13:44:43;10.02;;;2.80;;
37205;SDS011;23099;42.636;23.198;2023-11-22T13:47:11;10.70;;;3.15;;
37205;SDS011;23099;42.636;23.198;2023-11-22T13:49:39;5.30;;;1.75;;
37205;SDS011;23099;42.636;23.198;2023-11-22T13:52:07;6.25;;;2.15;;
37205;SDS011;23099;42.636;23.198;2023-11-22T13:54:34;5.15;;;1.98;;
37205;SDS011;23099;42.636;23.198;2023-11-22T13:57:04;6.70;;;2.05;;
37205;SDS011;23099;42.636;23.198;2023-11-22T13:59:31;6.93;;;3.78;;
37205;SDS011;23099;42.636;23.198;2023-11-22T14:01:58;5.38;;;2.00;;
37205;SDS011;23099;42.636;23.198;2023-11-22T14:04:27;5.95;;;2.13;;
37205;SDS011;23099;42.636;23.198;2023-11-22T14:06:54;5.10;;;2.08;;
37205;SDS011;23099;42.636;23.198;2023-11-22T14:09:20;11.38;;;1.95;;
37205;SDS011;23099;42.636;23.198;2023-11-22T14:11:47;5.68;;;2.03;;
37205;SDS011;23099;42.636;23.198;2023-11-22T14:14:14;5.18;;;2.13;;
37205;SDS011;23099;42.636;23.198;2023-11-22T14:16:41;3.72;;;1.55;;
37205;SDS011;23099;42.636;23.198;2023-11-22T14:19:10;5.15;;;1.45;;
37205;SDS011;23099;42.636;23.198;2023-11-22T14:21:38;5.65;;;1.95;;
37205;SDS011;23099;42.636;23.198;2023-11-22T14:26:32;5.22;;;2.28;;
37205;SDS011;23099;42.636;23.198;2023-11-22T14:28:59;4.10;;;2.20;;
37205;SDS011;23099;42.636;23.198;2023-11-22T14:31:25;4.18;;;2.53;;
37205;SDS011;23099;42.636;23.198;2023-11-22T14:33:52;5.60;;;2.65;;
37205;SDS011;23099;42.636;23.198;2023-11-22T14:36:21;5.97;;;1.55;;
37205;SDS011;23099;42.636;23.198;2023-11-22T14:38:49;4.30;;;2.13;;
37205;SDS011;23099;42.636;23.198;2023-11-22T14:41:19;5.97;;;2.78;;
37205;SDS011;23099;42.636;23.198;2023-11-22T14:43:46;7.65;;;2.72;;
37205;SDS011;23099;42.636;23.198;2023-11-22T14:46:13;5.68;;;3.35;;
37205;SDS011;23099;42.636;23.198;2023-11-22T14:48:40;5.28;;;1.77;;
37205;SDS011;23099;42.636;23.198;2023-11-22T14:51:07;5.85;;;2.72;;
37205;SDS011;23099;42.636;23.198;2023-11-22T14:53:35;4.53;;;1.93;;
37205;SDS011;23099;42.636;23.198;2023-11-22T14:56:05;4.97;;;2.28;;
37205;SDS011;23099;42.636;23.198;2023-11-22T14:58:33;7.50;;;3.58;;
37205;SDS011;23099;42.636;23.198;2023-11-22T15:00:59;3.13;;;1.10;;